Cathy — WTS7432 — position and weather

sailwx.info

Track history (hours):
 
Tides and Currents Weather Stations Pressure Air Temp Water Temp Dewpoint Dewpoint Depression Visibility Wind Speed Wind Dir Waves Ship Positions

Cathy

Owner: N R BROUSSARD LANDING INC, ABBEVILLE, LA. More information available from US FCC via Universal Licensing System and Coast Guard Vessel Documentation Center.

Last reported at 2017-Oct-18 01:05 UTC. Time now 2017-Oct-20 06:50 UTC.
Position N 29°44' W 092°23'.

Length 20 m; draft 2 m.

Type: Tug. MMSI: 367001570.

Date/timePositionNaut miles runAvg speedWind from/ knotsBaromVisibWave heightAir tempDewpointWater temp
2017-Oct-18 01:05N 29°44' W 092°23'2 6.3
2017-Oct-18 00:44N 29°45' W 092°21'1 6.2
2017-Oct-18 00:30N 29°45' W 092°19'3 6.1
2017-Oct-18 00:00N 29°46' W 092°16'3 5.3
2017-Oct-17 23:30N 29°48' W 092°15'3 5.5
2017-Oct-17 23:00N 29°47' W 092°12'2 3.7
2017-Oct-17 22:30N 29°47' W 092°10'0 0.1
2017-Oct-17 22:00N 29°47' W 092°10'0 0.1
2017-Oct-17 21:30N 29°47' W 092°10'0 0.0
2017-Oct-17 21:00N 29°47' W 092°10'0 0.0
2017-Oct-17 20:30N 29°47' W 092°10'0 0.0
2017-Oct-17 20:00N 29°47' W 092°10'0 0.0
2017-Oct-17 19:30N 29°47' W 092°10'0 0.0
2017-Oct-17 19:00N 29°47' W 092°10'0 0.0
2017-Oct-17 18:30N 29°47' W 092°10'0 0.0
2017-Oct-17 18:00N 29°47' W 092°10'0 0.0
2017-Oct-17 17:30N 29°47' W 092°10'0 0.0
2017-Oct-17 17:00N 29°47' W 092°10'0 0.0
2017-Oct-17 16:30N 29°47' W 092°10'0 0.0
2017-Oct-17 16:00N 29°47' W 092°10'0 0.0
2017-Oct-17 15:30N 29°47' W 092°10'0 0.0
2017-Oct-17 15:00N 29°47' W 092°10'0 0.0
2017-Oct-17 14:30N 29°47' W 092°10'0 0.0
2017-Oct-17 14:00N 29°47' W 092°10'0 0.0
2017-Oct-17 13:30N 29°47' W 092°10'0 0.0
2017-Oct-17 13:00N 29°47' W 092°10'0 0.2
2017-Oct-17 12:30N 29°47' W 092°10'0 0.7
2017-Oct-17 12:00N 29°47' W 092°11'0 0.0
2017-Oct-17 11:30N 29°47' W 092°11'0 0.0
2017-Oct-16 21:39N 29°47' W 092°11'0 0.0
2017-Oct-16 21:31N 29°47' W 092°11'0 0.0
2017-Oct-16 21:01N 29°47' W 092°11'0 0.0
2017-Oct-16 20:31N 29°47' W 092°11'0 0.0
2017-Oct-16 20:01N 29°47' W 092°11'0 0.0
2017-Oct-16 19:30N 29°47' W 092°11'0 0.7
2017-Oct-16 19:01N 29°47' W 092°10'0 0.0
2017-Oct-16 18:30N 29°47' W 092°10'0 0.0
2017-Oct-16 18:01N 29°47' W 092°10'0 0.0
2017-Oct-16 17:30N 29°47' W 092°10'0 0.0
2017-Oct-16 17:00N 29°47' W 092°10'0 0.0
2017-Oct-16 16:30N 29°47' W 092°10'0 0.0
2017-Oct-16 16:01N 29°47' W 092°10'0 0.0
2017-Oct-16 15:30N 29°47' W 092°10'0 0.0
2017-Oct-16 15:01N 29°47' W 092°10'0 0.0
2017-Oct-16 14:31N 29°47' W 092°10'0 0.0
2017-Oct-16 13:31N 29°47' W 092°10'0 0.0
2017-Oct-16 13:01N 29°47' W 092°10'1 2.7
2017-Oct-16 12:31N 29°46' W 092°11'3 5.6
2017-Oct-16 12:01N 29°45' W 092°14'3 5.5
2017-Oct-16 11:31N 29°45' W 092°18'2 3.8
2017-Oct-16 11:00N 29°45' W 092°20'0 0.0
2017-Oct-16 10:26N 29°45' W 092°20'0 0.0
2017-Oct-16 10:00N 29°45' W 092°20'0 0.0
2017-Oct-16 09:28N 29°45' W 092°20'0 0.0
2017-Oct-16 08:28N 29°45' W 092°20'0 0.0
2017-Oct-16 07:52N 29°45' W 092°20'0 0.0
2017-Oct-16 06:21N 29°45' W 092°20'0 0.0
2017-Oct-16 06:00N 29°45' W 092°20'0 0.0
2017-Oct-16 05:29N 29°45' W 092°20'0 0.0
2017-Oct-16 04:26N 29°45' W 092°20'0 0.0
2017-Oct-16 01:20N 29°45' W 092°20'0 0.0
2017-Oct-16 00:21N 29°45' W 092°20'0 0.0
2017-Oct-15 23:40N 29°45' W 092°20'0 0.0
2017-Oct-15 23:28N 29°45' W 092°20'0 0.2
2017-Oct-15 22:53N 29°45' W 092°20'  
2017-Oct-11 20:23N 29°44' W 092°22'2 3.7
2017-Oct-11 19:57N 29°45' W 092°20'2 5.6
2017-Oct-11 19:30N 29°45' W 092°17'2 4.5
2017-Oct-11 19:01N 29°45' W 092°14'2 4.6
2017-Oct-11 18:31N 29°46' W 092°12'2 3.4
2017-Oct-11 18:00N 29°47' W 092°10'0 0.3
2017-Oct-11 17:31N 29°47' W 092°10'0 0.4
2017-Oct-11 17:01N 29°47' W 092°10'0 0.0
2017-Oct-10 21:52N 29°47' W 092°11'0 0.0
2017-Oct-10 21:31N 29°47' W 092°11'0 0.0
2017-Oct-10 21:01N 29°47' W 092°11'0 0.0
2017-Oct-10 20:30N 29°47' W 092°11'0 0.0
2017-Oct-10 20:00N 29°47' W 092°11'0 0.0
2017-Oct-10 19:30N 29°47' W 092°11'0 0.0
2017-Oct-10 19:00N 29°47' W 092°11'0 0.0
2017-Oct-10 18:30N 29°47' W 092°11'0 0.0
2017-Oct-10 18:00N 29°47' W 092°11'0 0.0
2017-Oct-10 17:30N 29°47' W 092°11'0 0.0
2017-Oct-10 17:00N 29°47' W 092°11'0 0.0
2017-Oct-10 16:31N 29°47' W 092°11'0 0.0
2017-Oct-10 16:00N 29°47' W 092°11'0 0.0
2017-Oct-10 15:31N 29°47' W 092°11'0 0.0
2017-Oct-10 15:01N 29°47' W 092°11'0 0.0
2017-Oct-10 14:01N 29°47' W 092°11'0 0.0
2017-Oct-10 13:30N 29°47' W 092°11'0 0.0
2017-Oct-10 13:00N 29°47' W 092°11'0 0.5
2017-Oct-10 12:30N 29°47' W 092°10'0 0.5
2017-Oct-10 12:01N 29°47' W 092°11'0 0.0
2017-Oct-10 11:31N 29°47' W 092°11'0 0.0
2017-Oct-10 11:01N 29°47' W 092°11'0 0.0
2017-Oct-10 10:30N 29°47' W 092°11'0 0.0
2017-Oct-10 10:00N 29°47' W 092°11'0 0.0
2017-Oct-10 09:31N 29°47' W 092°11'0 0.0
2017-Oct-10 09:00N 29°47' W 092°11'0 0.0
2017-Oct-10 08:30N 29°47' W 092°11'0 0.0
2017-Oct-10 08:00N 29°47' W 092°11'0 0.0
2017-Oct-10 07:30N 29°47' W 092°11'0 0.0
2017-Oct-10 07:01N 29°47' W 092°11'0 0.0
2017-Oct-10 06:30N 29°47' W 092°11'0 0.0
2017-Oct-10 06:01N 29°47' W 092°11'0 0.0
2017-Oct-10 05:30N 29°47' W 092°11'0 0.0
2017-Oct-10 05:01N 29°47' W 092°11'0 0.0
2017-Oct-10 04:30N 29°47' W 092°11'0 0.0
2017-Oct-10 04:01N 29°47' W 092°11'0 0.0
2017-Oct-10 03:31N 29°47' W 092°11'0 0.0
2017-Oct-10 03:00N 29°47' W 092°11'0 0.0
2017-Oct-10 02:30N 29°47' W 092°11'0 0.0
2017-Oct-10 02:00N 29°47' W 092°11'0 0.0
2017-Oct-10 01:30N 29°47' W 092°11'0 0.0
2017-Oct-10 01:00N 29°47' W 092°11'0 0.0
2017-Oct-10 00:30N 29°47' W 092°11'0 0.0
2017-Oct-10 00:00N 29°47' W 092°11'0 0.8
2017-Oct-09 23:30N 29°47' W 092°11'0 0.3
2017-Oct-09 23:01N 29°47' W 092°11'0 0.0
2017-Oct-09 22:30N 29°47' W 092°11'2 4.2
2017-Oct-09 22:00N 29°47' W 092°09'4 8.1
2017-Oct-09 21:29N 29°48' W 092°04'2 0.1
2017-Oct-08 19:57N 29°49' W 092°02'3 7.2
2017-Oct-08 19:31N 29°48' W 092°06'4 7.4
2017-Oct-08 19:00N 29°47' W 092°10'1 1.9
2017-Oct-08 18:31N 29°47' W 092°11'0 0.7
2017-Oct-08 18:00N 29°47' W 092°11'0 0.0
2017-Oct-08 17:30N 29°47' W 092°11'0 0.0
2017-Oct-08 17:00N 29°47' W 092°11'0 0.0
2017-Oct-08 16:30N 29°47' W 092°11'0 0.0
2017-Oct-08 16:00N 29°47' W 092°11'0 0.0
2017-Oct-08 15:30N 29°47' W 092°11'0 0.0
2017-Oct-08 15:00N 29°47' W 092°11'0 0.0
2017-Oct-08 14:30N 29°47' W 092°11'0 0.0
2017-Oct-08 14:00N 29°47' W 092°11'0 0.0
2017-Oct-08 13:30N 29°47' W 092°11'0 0.0
2017-Oct-08 13:00N 29°47' W 092°11'0 0.0
2017-Oct-08 12:30N 29°47' W 092°11'0 0.0
2017-Oct-08 12:01N 29°47' W 092°11'0 0.0
2017-Oct-08 11:30N 29°47' W 092°11'0 0.0
2017-Oct-08 11:01N 29°47' W 092°11'  
Track history (hours):
 
Tides and Currents Weather Stations Pressure Air Temp Water Temp Dewpoint Dewpoint Depression Visibility Wind Speed Wind Dir Waves Ship Positions

Cathy

Owner: N R BROUSSARD LANDING INC, ABBEVILLE, LA. More information available from US FCC via Universal Licensing System and Coast Guard Vessel Documentation Center.

Last reported at 2017-Oct-18 01:05 UTC. Time now 2017-Oct-20 06:50 UTC.
Position N 29°44' W 092°23'.

Length 20 m; draft 2 m.

Type: Tug. MMSI: 367001570.

Date/timePositionNaut miles runAvg speedWind from/ knotsBaromVisibWave heightAir tempDewpointWater temp
2017-Oct-18 01:05N 29°44' W 092°23'2 6.3
2017-Oct-18 00:44N 29°45' W 092°21'1 6.2
2017-Oct-18 00:30N 29°45' W 092°19'3 6.1
2017-Oct-18 00:00N 29°46' W 092°16'3 5.3
2017-Oct-17 23:30N 29°48' W 092°15'3 5.5
2017-Oct-17 23:00N 29°47' W 092°12'2 3.7
2017-Oct-17 22:30N 29°47' W 092°10'0 0.1
2017-Oct-17 22:00N 29°47' W 092°10'0 0.1
2017-Oct-17 21:30N 29°47' W 092°10'0 0.0
2017-Oct-17 21:00N 29°47' W 092°10'0 0.0
2017-Oct-17 20:30N 29°47' W 092°10'0 0.0
2017-Oct-17 20:00N 29°47' W 092°10'0 0.0
2017-Oct-17 19:30N 29°47' W 092°10'0 0.0
2017-Oct-17 19:00N 29°47' W 092°10'0 0.0
2017-Oct-17 18:30N 29°47' W 092°10'0 0.0
2017-Oct-17 18:00N 29°47' W 092°10'0 0.0
2017-Oct-17 17:30N 29°47' W 092°10'0 0.0
2017-Oct-17 17:00N 29°47' W 092°10'0 0.0
2017-Oct-17 16:30N 29°47' W 092°10'0 0.0
2017-Oct-17 16:00N 29°47' W 092°10'0 0.0
2017-Oct-17 15:30N 29°47' W 092°10'0 0.0
2017-Oct-17 15:00N 29°47' W 092°10'0 0.0
2017-Oct-17 14:30N 29°47' W 092°10'0 0.0
2017-Oct-17 14:00N 29°47' W 092°10'0 0.0
2017-Oct-17 13:30N 29°47' W 092°10'0 0.0
2017-Oct-17 13:00N 29°47' W 092°10'0 0.2
2017-Oct-17 12:30N 29°47' W 092°10'0 0.7
2017-Oct-17 12:00N 29°47' W 092°11'0 0.0
2017-Oct-17 11:30N 29°47' W 092°11'0 0.0
2017-Oct-16 21:39N 29°47' W 092°11'0 0.0
2017-Oct-16 21:31N 29°47' W 092°11'0 0.0
2017-Oct-16 21:01N 29°47' W 092°11'0 0.0
2017-Oct-16 20:31N 29°47' W 092°11'0 0.0
2017-Oct-16 20:01N 29°47' W 092°11'0 0.0
2017-Oct-16 19:30N 29°47' W 092°11'0 0.7
2017-Oct-16 19:01N 29°47' W 092°10'0 0.0
2017-Oct-16 18:30N 29°47' W 092°10'0 0.0
2017-Oct-16 18:01N 29°47' W 092°10'0 0.0
2017-Oct-16 17:30N 29°47' W 092°10'0 0.0
2017-Oct-16 17:00N 29°47' W 092°10'0 0.0
2017-Oct-16 16:30N 29°47' W 092°10'0 0.0
2017-Oct-16 16:01N 29°47' W 092°10'0 0.0
2017-Oct-16 15:30N 29°47' W 092°10'0 0.0
2017-Oct-16 15:01N 29°47' W 092°10'0 0.0
2017-Oct-16 14:31N 29°47' W 092°10'0 0.0
2017-Oct-16 13:31N 29°47' W 092°10'0 0.0
2017-Oct-16 13:01N 29°47' W 092°10'1 2.7
2017-Oct-16 12:31N 29°46' W 092°11'3 5.6
2017-Oct-16 12:01N 29°45' W 092°14'3 5.5
2017-Oct-16 11:31N 29°45' W 092°18'2 3.8
2017-Oct-16 11:00N 29°45' W 092°20'0 0.0
2017-Oct-16 10:26N 29°45' W 092°20'0 0.0
2017-Oct-16 10:00N 29°45' W 092°20'0 0.0
2017-Oct-16 09:28N 29°45' W 092°20'0 0.0
2017-Oct-16 08:28N 29°45' W 092°20'0 0.0
2017-Oct-16 07:52N 29°45' W 092°20'0 0.0
2017-Oct-16 06:21N 29°45' W 092°20'0 0.0
2017-Oct-16 06:00N 29°45' W 092°20'0 0.0
2017-Oct-16 05:29N 29°45' W 092°20'0 0.0
2017-Oct-16 04:26N 29°45' W 092°20'0 0.0
2017-Oct-16 01:20N 29°45' W 092°20'0 0.0
2017-Oct-16 00:21N 29°45' W 092°20'0 0.0
2017-Oct-15 23:40N 29°45' W 092°20'0 0.0
2017-Oct-15 23:28N 29°45' W 092°20'0 0.2
2017-Oct-15 22:53N 29°45' W 092°20'  
2017-Oct-11 20:23N 29°44' W 092°22'2 3.7
2017-Oct-11 19:57N 29°45' W 092°20'2 5.6
2017-Oct-11 19:30N 29°45' W 092°17'2 4.5
2017-Oct-11 19:01N 29°45' W 092°14'2 4.6
2017-Oct-11 18:31N 29°46' W 092°12'2 3.4
2017-Oct-11 18:00N 29°47' W 092°10'0 0.3
2017-Oct-11 17:31N 29°47' W 092°10'0 0.4
2017-Oct-11 17:01N 29°47' W 092°10'0 0.0
2017-Oct-10 21:52N 29°47' W 092°11'0 0.0
2017-Oct-10 21:31N 29°47' W 092°11'0 0.0
2017-Oct-10 21:01N 29°47' W 092°11'0 0.0
2017-Oct-10 20:30N 29°47' W 092°11'0 0.0
2017-Oct-10 20:00N 29°47' W 092°11'0 0.0
2017-Oct-10 19:30N 29°47' W 092°11'0 0.0
2017-Oct-10 19:00N 29°47' W 092°11'0 0.0
2017-Oct-10 18:30N 29°47' W 092°11'0 0.0
2017-Oct-10 18:00N 29°47' W 092°11'0 0.0
2017-Oct-10 17:30N 29°47' W 092°11'0 0.0
2017-Oct-10 17:00N 29°47' W 092°11'0 0.0
2017-Oct-10 16:31N 29°47' W 092°11'0 0.0
2017-Oct-10 16:00N 29°47' W 092°11'0 0.0
2017-Oct-10 15:31N 29°47' W 092°11'0 0.0
2017-Oct-10 15:01N 29°47' W 092°11'0 0.0
2017-Oct-10 14:01N 29°47' W 092°11'0 0.0
2017-Oct-10 13:30N 29°47' W 092°11'0 0.0
2017-Oct-10 13:00N 29°47' W 092°11'0 0.5
2017-Oct-10 12:30N 29°47' W 092°10'0 0.5
2017-Oct-10 12:01N 29°47' W 092°11'0 0.0
2017-Oct-10 11:31N 29°47' W 092°11'0 0.0
2017-Oct-10 11:01N 29°47' W 092°11'0 0.0
2017-Oct-10 10:30N 29°47' W 092°11'0 0.0
2017-Oct-10 10:00N 29°47' W 092°11'0 0.0
2017-Oct-10 09:31N 29°47' W 092°11'0 0.0
2017-Oct-10 09:00N 29°47' W 092°11'0 0.0
2017-Oct-10 08:30N 29°47' W 092°11'0 0.0
2017-Oct-10 08:00N 29°47' W 092°11'0 0.0
2017-Oct-10 07:30N 29°47' W 092°11'0 0.0
2017-Oct-10 07:01N 29°47' W 092°11'0 0.0
2017-Oct-10 06:30N 29°47' W 092°11'0 0.0
2017-Oct-10 06:01N 29°47' W 092°11'0 0.0
2017-Oct-10 05:30N 29°47' W 092°11'0 0.0
2017-Oct-10 05:01N 29°47' W 092°11'0 0.0
2017-Oct-10 04:30N 29°47' W 092°11'0 0.0
2017-Oct-10 04:01N 29°47' W 092°11'0 0.0
2017-Oct-10 03:31N 29°47' W 092°11'0 0.0
2017-Oct-10 03:00N 29°47' W 092°11'0 0.0
2017-Oct-10 02:30N 29°47' W 092°11'0 0.0
2017-Oct-10 02:00N 29°47' W 092°11'0 0.0
2017-Oct-10 01:30N 29°47' W 092°11'0 0.0
2017-Oct-10 01:00N 29°47' W 092°11'0 0.0
2017-Oct-10 00:30N 29°47' W 092°11'0 0.0
2017-Oct-10 00:00N 29°47' W 092°11'0 0.8
2017-Oct-09 23:30N 29°47' W 092°11'0 0.3
2017-Oct-09 23:01N 29°47' W 092°11'0 0.0
2017-Oct-09 22:30N 29°47' W 092°11'2 4.2
2017-Oct-09 22:00N 29°47' W 092°09'4 8.1
2017-Oct-09 21:29N 29°48' W 092°04'2 0.1
2017-Oct-08 19:57N 29°49' W 092°02'3 7.2
2017-Oct-08 19:31N 29°48' W 092°06'4 7.4
2017-Oct-08 19:00N 29°47' W 092°10'1 1.9
2017-Oct-08 18:31N 29°47' W 092°11'0 0.7
2017-Oct-08 18:00N 29°47' W 092°11'0 0.0
2017-Oct-08 17:30N 29°47' W 092°11'0 0.0
2017-Oct-08 17:00N 29°47' W 092°11'0 0.0
2017-Oct-08 16:30N 29°47' W 092°11'0 0.0
2017-Oct-08 16:00N 29°47' W 092°11'0 0.0
2017-Oct-08 15:30N 29°47' W 092°11'0 0.0
2017-Oct-08 15:00N 29°47' W 092°11'0 0.0
2017-Oct-08 14:30N 29°47' W 092°11'0 0.0
2017-Oct-08 14:00N 29°47' W 092°11'0 0.0
2017-Oct-08 13:30N 29°47' W 092°11'0 0.0
2017-Oct-08 13:00N 29°47' W 092°11'0 0.0
2017-Oct-08 12:30N 29°47' W 092°11'0 0.0
2017-Oct-08 12:01N 29°47' W 092°11'0 0.0
2017-Oct-08 11:30N 29°47' W 092°11'0 0.0
2017-Oct-08 11:01N 29°47' W 092°11'  

Dump ship's entire track history